This is the latest recevied weather packets stored in our database for station/object M0IQF-13. If no packets are shown the sender has not sent any weather packets the latest 10 day(s).
| Time | Temp. | Humidity | Pressure | Rain* | Wind** | Luminosity | Snow |
|---|---|---|---|---|---|---|---|
| 1777289602 | 38.89° C | 15% | 1023 hPa | - | - | - | - |
| 1777288695 | 37.22° C | 15% | 1023.2 hPa | - | - | - | - |
| 1777287788 | 35.56° C | 15% | 1023.3 hPa | - | - | - | - |
| 1777286881 | 35° C | 16% | 1023.3 hPa | - | - | - | - |
| 1777285974 | 33.33° C | 16% | 1023.4 hPa | - | - | - | - |
| 1777285067 | 36.11° C | 15% | 1023.3 hPa | - | - | - | - |
| 1777284160 | 37.22° C | 15% | 1023.5 hPa | - | - | - | - |
| 1777283252 | 33.89° C | 15% | 1023.6 hPa | - | - | - | - |
| 1777282345 | 33.89° C | 16% | 1023.7 hPa | - | - | - | - |
| 1777281439 | 35° C | 16% | 1023.7 hPa | - | - | - | - |
| 1777280531 | 35.56° C | 16% | 1023.7 hPa | - | - | - | - |
| 1777279624 | 33.89° C | 17% | 1023.8 hPa | - | - | - | - |
| 1777278717 | 34.44° C | 19% | 1023.9 hPa | - | - | - | - |
| 1777277810 | 34.44° C | 20% | 1023.8 hPa | - | - | - | - |
| 1777276903 | 31.11° C | 22% | 1023.8 hPa | - | - | - | - |
| 1777275996 | 31.67° C | 24% | 1024 hPa | - | - | - | - |
| 1777275089 | 31.11° C | 25% | 1024 hPa | - | - | - | - |
| 1777274182 | 30° C | 29% | 1024 hPa | - | - | - | - |
| 1777273275 | 28.89° C | 32% | 1023.9 hPa | - | - | - | - |
| 1777272368 | 26.11° C | 41% | 1024.1 hPa | - | - | - | - |
| 1777271461 | 25° C | 45% | 1023.9 hPa | - | - | - | - |
| 1777270554 | 22.78° C | 52% | 1023.9 hPa | - | - | - | - |
| 1777269647 | 20° C | 56% | 1023.8 hPa | - | - | - | - |
| 1777268740 | 18.89° C | 59% | 1024 hPa | - | - | - | - |
| 1777267832 | 15.56° C | 69% | 1023.9 hPa | - | - | - | - |
* Rain since midnight (hover to see other rain measurements)
** Current wind speed in m/s (hover to see current wind gust speed)